sensor_id;sensor_type;location;lat;lon;timestamp;P1;durP1;ratioP1;P2;durP2;ratioP2
34144;SDS011;20422;53.014;8.886;2022-11-13T00:01:21;21.90;;;12.48;;
34144;SDS011;20422;53.014;8.886;2022-11-13T00:03:48;17.05;;;11.82;;
34144;SDS011;20422;53.014;8.886;2022-11-13T00:06:15;19.48;;;11.20;;
34144;SDS011;20422;53.014;8.886;2022-11-13T00:08:41;20.48;;;12.05;;
34144;SDS011;20422;53.014;8.886;2022-11-13T00:11:14;60.88;;;24.55;;
34144;SDS011;20422;53.014;8.886;2022-11-13T00:13:42;22.08;;;12.02;;
34144;SDS011;20422;53.014;8.886;2022-11-13T00:16:10;16.83;;;10.98;;
34144;SDS011;20422;53.014;8.886;2022-11-13T00:18:43;16.92;;;10.93;;
34144;SDS011;20422;53.014;8.886;2022-11-13T00:21:16;22.00;;;13.18;;
34144;SDS011;20422;53.014;8.886;2022-11-13T00:23:48;28.60;;;13.43;;
34144;SDS011;20422;53.014;8.886;2022-11-13T00:26:15;23.50;;;12.45;;
34144;SDS011;20422;53.014;8.886;2022-11-13T00:28:44;24.70;;;12.38;;
34144;SDS011;20422;53.014;8.886;2022-11-13T00:31:10;16.85;;;11.73;;
34144;SDS011;20422;53.014;8.886;2022-11-13T00:33:38;38.03;;;17.33;;
34144;SDS011;20422;53.014;8.886;2022-11-13T00:36:15;63.30;;;22.73;;
34144;SDS011;20422;53.014;8.886;2022-11-13T00:38:44;84.57;;;30.13;;
34144;SDS011;20422;53.014;8.886;2022-11-13T00:41:11;30.77;;;14.95;;
34144;SDS011;20422;53.014;8.886;2022-11-13T00:43:37;47.47;;;18.48;;
34144;SDS011;20422;53.014;8.886;2022-11-13T00:46:03;23.83;;;12.93;;
34144;SDS011;20422;53.014;8.886;2022-11-13T00:48:28;22.80;;;12.55;;
34144;SDS011;20422;53.014;8.886;2022-11-13T00:50:55;17.17;;;11.77;;
34144;SDS011;20422;53.014;8.886;2022-11-13T00:53:22;18.83;;;12.05;;
34144;SDS011;20422;53.014;8.886;2022-11-13T00:55:49;20.58;;;12.65;;
34144;SDS011;20422;53.014;8.886;2022-11-13T00:58:14;20.30;;;11.93;;
34144;SDS011;20422;53.014;8.886;2022-11-13T01:00:42;21.63;;;12.38;;
34144;SDS011;20422;53.014;8.886;2022-11-13T01:03:11;22.80;;;11.95;;
34144;SDS011;20422;53.014;8.886;2022-11-13T01:05:38;19.83;;;12.68;;
34144;SDS011;20422;53.014;8.886;2022-11-13T01:08:07;22.13;;;13.73;;
34144;SDS011;20422;53.014;8.886;2022-11-13T01:10:34;23.10;;;12.52;;
34144;SDS011;20422;53.014;8.886;2022-11-13T01:15:29;22.42;;;13.40;;
34144;SDS011;20422;53.014;8.886;2022-11-13T01:17:56;24.80;;;13.57;;
34144;SDS011;20422;53.014;8.886;2022-11-13T01:20:22;18.48;;;12.05;;
34144;SDS011;20422;53.014;8.886;2022-11-13T01:22:50;19.33;;;12.02;;
34144;SDS011;20422;53.014;8.886;2022-11-13T01:25:16;16.70;;;10.82;;
34144;SDS011;20422;53.014;8.886;2022-11-13T01:27:43;18.58;;;12.40;;
34144;SDS011;20422;53.014;8.886;2022-11-13T01:30:09;16.42;;;10.88;;
34144;SDS011;20422;53.014;8.886;2022-11-13T01:32:36;21.58;;;11.38;;
34144;SDS011;20422;53.014;8.886;2022-11-13T01:35:02;18.85;;;11.80;;
34144;SDS011;20422;53.014;8.886;2022-11-13T01:37:29;15.90;;;11.90;;
34144;SDS011;20422;53.014;8.886;2022-11-13T01:39:56;21.25;;;13.13;;
34144;SDS011;20422;53.014;8.886;2022-11-13T01:42:21;17.25;;;11.05;;
34144;SDS011;20422;53.014;8.886;2022-11-13T01:44:52;17.30;;;11.88;;
34144;SDS011;20422;53.014;8.886;2022-11-13T01:47:20;21.30;;;12.82;;
34144;SDS011;20422;53.014;8.886;2022-11-13T01:49:52;19.80;;;11.95;;
34144;SDS011;20422;53.014;8.886;2022-11-13T01:52:30;21.23;;;12.57;;
34144;SDS011;20422;53.014;8.886;2022-11-13T01:55:02;19.27;;;11.48;;
34144;SDS011;20422;53.014;8.886;2022-11-13T01:59:59;24.15;;;13.20;;
34144;SDS011;20422;53.014;8.886;2022-11-13T02:02:28;18.55;;;12.18;;
34144;SDS011;20422;53.014;8.886;2022-11-13T02:04:54;26.48;;;13.48;;
34144;SDS011;20422;53.014;8.886;2022-11-13T02:07:20;27.42;;;14.13;;
34144;SDS011;20422;53.014;8.886;2022-11-13T02:09:48;22.90;;;14.00;;
34144;SDS011;20422;53.014;8.886;2022-11-13T02:12:49;19.20;;;13.45;;
34144;SDS011;20422;53.014;8.886;2022-11-13T02:15:11;21.20;;;14.32;;
34144;SDS011;20422;53.014;8.886;2022-11-13T02:17:53;23.77;;;14.23;;
34144;SDS011;20422;53.014;8.886;2022-11-13T02:20:26;22.30;;;13.18;;
34144;SDS011;20422;53.014;8.886;2022-11-13T02:28:18;22.25;;;12.45;;
34144;SDS011;20422;53.014;8.886;2022-11-13T02:30:44;19.40;;;12.60;;
34144;SDS011;20422;53.014;8.886;2022-11-13T02:33:29;28.08;;;13.50;;
34144;SDS011;20422;53.014;8.886;2022-11-13T02:35:55;23.05;;;12.82;;
34144;SDS011;20422;53.014;8.886;2022-11-13T02:38:23;23.92;;;14.15;;
34144;SDS011;20422;53.014;8.886;2022-11-13T02:40:49;21.00;;;12.90;;
34144;SDS011;20422;53.014;8.886;2022-11-13T02:43:15;25.98;;;13.05;;
34144;SDS011;20422;53.014;8.886;2022-11-13T02:45:41;22.77;;;15.07;;
34144;SDS011;20422;53.014;8.886;2022-11-13T02:48:08;26.42;;;14.70;;
34144;SDS011;20422;53.014;8.886;2022-11-13T02:50:35;20.33;;;14.95;;
34144;SDS011;20422;53.014;8.886;2022-11-13T02:53:02;21.80;;;13.50;;
34144;SDS011;20422;53.014;8.886;2022-11-13T02:55:29;23.80;;;14.90;;
34144;SDS011;20422;53.014;8.886;2022-11-13T02:57:55;22.67;;;14.75;;
34144;SDS011;20422;53.014;8.886;2022-11-13T03:00:22;27.80;;;14.90;;
34144;SDS011;20422;53.014;8.886;2022-11-13T03:02:48;23.08;;;14.43;;
34144;SDS011;20422;53.014;8.886;2022-11-13T03:05:13;21.48;;;14.52;;
34144;SDS011;20422;53.014;8.886;2022-11-13T03:07:40;22.45;;;13.70;;
34144;SDS011;20422;53.014;8.886;2022-11-13T03:10:07;23.10;;;14.70;;
34144;SDS011;20422;53.014;8.886;2022-11-13T03:12:35;27.00;;;14.38;;
34144;SDS011;20422;53.014;8.886;2022-11-13T03:15:01;22.92;;;13.13;;
34144;SDS011;20422;53.014;8.886;2022-11-13T03:17:31;23.63;;;14.65;;
34144;SDS011;20422;53.014;8.886;2022-11-13T03:19:56;25.88;;;13.52;;
34144;SDS011;20422;53.014;8.886;2022-11-13T03:22:23;24.60;;;14.20;;
34144;SDS011;20422;53.014;8.886;2022-11-13T03:24:50;20.73;;;13.70;;
34144;SDS011;20422;53.014;8.886;2022-11-13T03:27:16;20.33;;;13.73;;
34144;SDS011;20422;53.014;8.886;2022-11-13T03:29:42;23.75;;;13.85;;
34144;SDS011;20422;53.014;8.886;2022-11-13T03:32:07;27.63;;;14.80;;
34144;SDS011;20422;53.014;8.886;2022-11-13T03:34:34;29.02;;;15.73;;
34144;SDS011;20422;53.014;8.886;2022-11-13T03:37:00;21.60;;;14.35;;
34144;SDS011;20422;53.014;8.886;2022-11-13T03:39:27;26.48;;;14.23;;
34144;SDS011;20422;53.014;8.886;2022-11-13T03:41:54;24.38;;;15.02;;
34144;SDS011;20422;53.014;8.886;2022-11-13T03:44:21;27.55;;;15.82;;
34144;SDS011;20422;53.014;8.886;2022-11-13T03:46:46;21.58;;;14.55;;
34144;SDS011;20422;53.014;8.886;2022-11-13T03:49:14;24.77;;;14.55;;
34144;SDS011;20422;53.014;8.886;2022-11-13T03:51:41;20.92;;;14.30;;
34144;SDS011;20422;53.014;8.886;2022-11-13T03:54:06;24.00;;;14.20;;
34144;SDS011;20422;53.014;8.886;2022-11-13T03:56:33;23.17;;;13.45;;
34144;SDS011;20422;53.014;8.886;2022-11-13T03:58:58;22.50;;;13.93;;
34144;SDS011;20422;53.014;8.886;2022-11-13T04:01:24;26.00;;;13.95;;
34144;SDS011;20422;53.014;8.886;2022-11-13T04:03:50;22.10;;;14.00;;
34144;SDS011;20422;53.014;8.886;2022-11-13T04:06:16;23.00;;;14.30;;
34144;SDS011;20422;53.014;8.886;2022-11-13T04:08:43;24.67;;;15.05;;
34144;SDS011;20422;53.014;8.886;2022-11-13T04:11:10;29.73;;;16.20;;
34144;SDS011;20422;53.014;8.886;2022-11-13T04:13:36;24.98;;;14.63;;
34144;SDS011;20422;53.014;8.886;2022-11-13T04:16:02;29.92;;;16.70;;
34144;SDS011;20422;53.014;8.886;2022-11-13T04:18:30;29.00;;;16.10;;
34144;SDS011;20422;53.014;8.886;2022-11-13T04:21:02;24.33;;;16.45;;
34144;SDS011;20422;53.014;8.886;2022-11-13T04:23:30;31.25;;;18.27;;
34144;SDS011;20422;53.014;8.886;2022-11-13T04:25:55;28.17;;;16.40;;
34144;SDS011;20422;53.014;8.886;2022-11-13T04:28:22;30.30;;;17.63;;
34144;SDS011;20422;53.014;8.886;2022-11-13T04:30:49;33.15;;;16.77;;
34144;SDS011;20422;53.014;8.886;2022-11-13T04:33:19;24.95;;;15.07;;
34144;SDS011;20422;53.014;8.886;2022-11-13T04:35:45;27.88;;;15.35;;
34144;SDS011;20422;53.014;8.886;2022-11-13T04:38:11;25.73;;;14.40;;
34144;SDS011;20422;53.014;8.886;2022-11-13T04:40:37;22.05;;;14.68;;
34144;SDS011;20422;53.014;8.886;2022-11-13T04:43:03;24.52;;;14.45;;
34144;SDS011;20422;53.014;8.886;2022-11-13T04:45:29;23.65;;;14.63;;
34144;SDS011;20422;53.014;8.886;2022-11-13T04:47:56;23.65;;;14.73;;
34144;SDS011;20422;53.014;8.886;2022-11-13T04:50:22;23.60;;;15.40;;
34144;SDS011;20422;53.014;8.886;2022-11-13T04:52:49;25.63;;;15.30;;
34144;SDS011;20422;53.014;8.886;2022-11-13T04:55:16;33.53;;;16.33;;
34144;SDS011;20422;53.014;8.886;2022-11-13T04:57:42;26.67;;;16.17;;
34144;SDS011;20422;53.014;8.886;2022-11-13T05:00:09;28.60;;;17.52;;
34144;SDS011;20422;53.014;8.886;2022-11-13T05:02:36;25.50;;;16.92;;
34144;SDS011;20422;53.014;8.886;2022-11-13T05:05:03;27.20;;;16.75;;
34144;SDS011;20422;53.014;8.886;2022-11-13T05:07:30;28.83;;;17.23;;
34144;SDS011;20422;53.014;8.886;2022-11-13T05:09:56;29.15;;;15.88;;
34144;SDS011;20422;53.014;8.886;2022-11-13T05:12:23;29.52;;;17.55;;
34144;SDS011;20422;53.014;8.886;2022-11-13T05:14:48;29.63;;;16.85;;
34144;SDS011;20422;53.014;8.886;2022-11-13T05:17:14;30.27;;;18.27;;
34144;SDS011;20422;53.014;8.886;2022-11-13T05:19:40;24.88;;;16.27;;
34144;SDS011;20422;53.014;8.886;2022-11-13T05:22:07;34.38;;;18.80;;
34144;SDS011;20422;53.014;8.886;2022-11-13T05:24:34;24.88;;;15.55;;
34144;SDS011;20422;53.014;8.886;2022-11-13T05:27:00;26.40;;;17.23;;
34144;SDS011;20422;53.014;8.886;2022-11-13T05:29:26;28.02;;;18.02;;
34144;SDS011;20422;53.014;8.886;2022-11-13T05:31:53;31.02;;;17.20;;
34144;SDS011;20422;53.014;8.886;2022-11-13T05:34:19;34.35;;;20.00;;
34144;SDS011;20422;53.014;8.886;2022-11-13T05:36:45;36.65;;;19.23;;
34144;SDS011;20422;53.014;8.886;2022-11-13T05:39:12;34.60;;;21.08;;
34144;SDS011;20422;53.014;8.886;2022-11-13T05:41:39;33.97;;;19.38;;
34144;SDS011;20422;53.014;8.886;2022-11-13T05:44:05;38.30;;;21.33;;
34144;SDS011;20422;53.014;8.886;2022-11-13T05:46:32;32.13;;;19.25;;
34144;SDS011;20422;53.014;8.886;2022-11-13T05:48:59;47.78;;;23.95;;
34144;SDS011;20422;53.014;8.886;2022-11-13T05:51:28;35.75;;;21.27;;
34144;SDS011;20422;53.014;8.886;2022-11-13T05:56:23;36.95;;;21.25;;
34144;SDS011;20422;53.014;8.886;2022-11-13T05:58:55;38.50;;;21.67;;
34144;SDS011;20422;53.014;8.886;2022-11-13T06:01:32;39.80;;;22.30;;
34144;SDS011;20422;53.014;8.886;2022-11-13T06:04:03;47.92;;;23.05;;
34144;SDS011;20422;53.014;8.886;2022-11-13T06:06:30;39.55;;;23.30;;
34144;SDS011;20422;53.014;8.886;2022-11-13T06:08:58;38.67;;;23.25;;
34144;SDS011;20422;53.014;8.886;2022-11-13T06:11:27;35.55;;;21.60;;
34144;SDS011;20422;53.014;8.886;2022-11-13T06:13:54;38.47;;;21.80;;
34144;SDS011;20422;53.014;8.886;2022-11-13T06:16:54;34.33;;;19.92;;
34144;SDS011;20422;53.014;8.886;2022-11-13T06:19:14;33.47;;;18.42;;
34144;SDS011;20422;53.014;8.886;2022-11-13T06:21:40;27.60;;;18.17;;
34144;SDS011;20422;53.014;8.886;2022-11-13T06:24:06;30.45;;;18.02;;
34144;SDS011;20422;53.014;8.886;2022-11-13T06:26:33;30.42;;;19.85;;
34144;SDS011;20422;53.014;8.886;2022-11-13T06:29:02;34.22;;;19.42;;
34144;SDS011;20422;53.014;8.886;2022-11-13T06:31:29;28.03;;;19.13;;
34144;SDS011;20422;53.014;8.886;2022-11-13T06:33:58;38.35;;;22.20;;
34144;SDS011;20422;53.014;8.886;2022-11-13T06:36:26;39.20;;;21.67;;
34144;SDS011;20422;53.014;8.886;2022-11-13T06:38:54;46.97;;;25.02;;
34144;SDS011;20422;53.014;8.886;2022-11-13T06:41:21;47.08;;;26.30;;
34144;SDS011;20422;53.014;8.886;2022-11-13T06:46:18;42.00;;;23.63;;
34144;SDS011;20422;53.014;8.886;2022-11-13T06:51:14;41.33;;;23.38;;
34144;SDS011;20422;53.014;8.886;2022-11-13T06:53:41;50.15;;;27.33;;
34144;SDS011;20422;53.014;8.886;2022-11-13T06:56:08;46.85;;;26.92;;
34144;SDS011;20422;53.014;8.886;2022-11-13T06:58:35;51.45;;;28.42;;
34144;SDS011;20422;53.014;8.886;2022-11-13T07:01:06;44.75;;;25.90;;
34144;SDS011;20422;53.014;8.886;2022-11-13T07:03:34;50.75;;;27.15;;
34144;SDS011;20422;53.014;8.886;2022-11-13T07:06:07;48.05;;;26.52;;
34144;SDS011;20422;53.014;8.886;2022-11-13T07:08:37;47.67;;;28.08;;
34144;SDS011;20422;53.014;8.886;2022-11-13T07:11:03;38.83;;;25.27;;
34144;SDS011;20422;53.014;8.886;2022-11-13T07:13:28;45.03;;;27.40;;
34144;SDS011;20422;53.014;8.886;2022-11-13T07:16:00;48.78;;;25.50;;
34144;SDS011;20422;53.014;8.886;2022-11-13T07:18:26;44.97;;;24.80;;
34144;SDS011;20422;53.014;8.886;2022-11-13T07:20:53;41.00;;;24.70;;
34144;SDS011;20422;53.014;8.886;2022-11-13T07:23:20;43.40;;;24.52;;
34144;SDS011;20422;53.014;8.886;2022-11-13T07:25:45;45.25;;;25.13;;
34144;SDS011;20422;53.014;8.886;2022-11-13T07:28:11;49.30;;;26.23;;
34144;SDS011;20422;53.014;8.886;2022-11-13T07:30:38;53.65;;;27.55;;
34144;SDS011;20422;53.014;8.886;2022-11-13T07:33:05;48.55;;;25.63;;
34144;SDS011;20422;53.014;8.886;2022-11-13T07:35:31;45.00;;;27.33;;
34144;SDS011;20422;53.014;8.886;2022-11-13T07:37:58;49.90;;;28.20;;
34144;SDS011;20422;53.014;8.886;2022-11-13T07:40:24;50.05;;;27.73;;
34144;SDS011;20422;53.014;8.886;2022-11-13T07:43:01;47.28;;;28.35;;
34144;SDS011;20422;53.014;8.886;2022-11-13T07:45:27;43.88;;;25.10;;
34144;SDS011;20422;53.014;8.886;2022-11-13T07:47:59;49.15;;;26.42;;
34144;SDS011;20422;53.014;8.886;2022-11-13T07:50:27;49.25;;;27.05;;
34144;SDS011;20422;53.014;8.886;2022-11-13T07:52:56;41.30;;;25.27;;
34144;SDS011;20422;53.014;8.886;2022-11-13T07:55:23;36.80;;;24.40;;
34144;SDS011;20422;53.014;8.886;2022-11-13T07:57:50;44.03;;;26.25;;
34144;SDS011;20422;53.014;8.886;2022-11-13T08:00:17;39.15;;;24.65;;
34144;SDS011;20422;53.014;8.886;2022-11-13T08:02:42;41.00;;;25.52;;
34144;SDS011;20422;53.014;8.886;2022-11-13T08:05:09;37.90;;;23.88;;
34144;SDS011;20422;53.014;8.886;2022-11-13T08:07:34;41.67;;;24.42;;
34144;SDS011;20422;53.014;8.886;2022-11-13T08:10:00;45.58;;;24.00;;
34144;SDS011;20422;53.014;8.886;2022-11-13T08:12:26;37.65;;;22.40;;
34144;SDS011;20422;53.014;8.886;2022-11-13T08:14:51;43.13;;;23.85;;
34144;SDS011;20422;53.014;8.886;2022-11-13T08:17:17;42.17;;;24.00;;
34144;SDS011;20422;53.014;8.886;2022-11-13T08:19:42;40.35;;;24.55;;
34144;SDS011;20422;53.014;8.886;2022-11-13T08:22:09;38.15;;;24.38;;
34144;SDS011;20422;53.014;8.886;2022-11-13T08:24:35;49.72;;;26.55;;
34144;SDS011;20422;53.014;8.886;2022-11-13T08:27:02;46.30;;;26.58;;
34144;SDS011;20422;53.014;8.886;2022-11-13T08:29:29;47.47;;;26.27;;
34144;SDS011;20422;53.014;8.886;2022-11-13T08:31:55;49.92;;;26.10;;
34144;SDS011;20422;53.014;8.886;2022-11-13T08:34:22;40.80;;;24.10;;
34144;SDS011;20422;53.014;8.886;2022-11-13T08:36:47;37.78;;;23.63;;
34144;SDS011;20422;53.014;8.886;2022-11-13T08:39:14;36.95;;;22.52;;
34144;SDS011;20422;53.014;8.886;2022-11-13T08:41:40;39.97;;;24.52;;
34144;SDS011;20422;53.014;8.886;2022-11-13T08:44:06;35.75;;;23.98;;
34144;SDS011;20422;53.014;8.886;2022-11-13T08:46:33;37.47;;;23.13;;
34144;SDS011;20422;53.014;8.886;2022-11-13T08:49:00;36.95;;;23.20;;
34144;SDS011;20422;53.014;8.886;2022-11-13T08:51:26;38.15;;;22.83;;
34144;SDS011;20422;53.014;8.886;2022-11-13T08:53:53;32.90;;;22.52;;
34144;SDS011;20422;53.014;8.886;2022-11-13T08:56:19;35.55;;;22.25;;
34144;SDS011;20422;53.014;8.886;2022-11-13T08:58:46;35.40;;;23.00;;
34144;SDS011;20422;53.014;8.886;2022-11-13T09:01:12;32.33;;;21.83;;
34144;SDS011;20422;53.014;8.886;2022-11-13T09:03:39;32.60;;;21.45;;
34144;SDS011;20422;53.014;8.886;2022-11-13T09:06:06;35.72;;;22.85;;
34144;SDS011;20422;53.014;8.886;2022-11-13T09:08:33;34.65;;;21.80;;
34144;SDS011;20422;53.014;8.886;2022-11-13T09:11:05;33.28;;;21.70;;
34144;SDS011;20422;53.014;8.886;2022-11-13T09:13:31;37.00;;;21.80;;
34144;SDS011;20422;53.014;8.886;2022-11-13T09:15:59;29.38;;;20.33;;
34144;SDS011;20422;53.014;8.886;2022-11-13T09:18:25;29.75;;;20.23;;
34144;SDS011;20422;53.014;8.886;2022-11-13T09:20:52;30.17;;;21.08;;
34144;SDS011;20422;53.014;8.886;2022-11-13T09:23:20;35.15;;;21.40;;
34144;SDS011;20422;53.014;8.886;2022-11-13T09:25:46;31.63;;;21.70;;
34144;SDS011;20422;53.014;8.886;2022-11-13T09:28:13;32.78;;;19.58;;
34144;SDS011;20422;53.014;8.886;2022-11-13T09:30:39;34.38;;;20.55;;
34144;SDS011;20422;53.014;8.886;2022-11-13T09:33:05;34.60;;;22.25;;
34144;SDS011;20422;53.014;8.886;2022-11-13T09:35:32;35.50;;;21.52;;
34144;SDS011;20422;53.014;8.886;2022-11-13T09:38:11;30.67;;;20.88;;
34144;SDS011;20422;53.014;8.886;2022-11-13T09:40:57;31.95;;;19.65;;
34144;SDS011;20422;53.014;8.886;2022-11-13T09:46:26;35.40;;;21.88;;
34144;SDS011;20422;53.014;8.886;2022-11-13T09:49:48;32.30;;;20.73;;
34144;SDS011;20422;53.014;8.886;2022-11-13T09:51:58;33.70;;;22.02;;
34144;SDS011;20422;53.014;8.886;2022-11-13T09:54:29;28.40;;;19.65;;
34144;SDS011;20422;53.014;8.886;2022-11-13T09:57:09;29.15;;;20.08;;
34144;SDS011;20422;53.014;8.886;2022-11-13T10:11:22;32.92;;;20.15;;
34144;SDS011;20422;53.014;8.886;2022-11-13T10:14:12;30.85;;;20.90;;
34144;SDS011;20422;53.014;8.886;2022-11-13T10:17:02;32.97;;;19.90;;
34144;SDS011;20422;53.014;8.886;2022-11-13T10:22:36;26.15;;;18.00;;
34144;SDS011;20422;53.014;8.886;2022-11-13T10:25:14;30.55;;;20.05;;
34144;SDS011;20422;53.014;8.886;2022-11-13T10:27:43;35.90;;;20.25;;
34144;SDS011;20422;53.014;8.886;2022-11-13T10:30:15;33.65;;;20.50;;
34144;SDS011;20422;53.014;8.886;2022-11-13T10:32:44;29.45;;;19.75;;
34144;SDS011;20422;53.014;8.886;2022-11-13T10:38:03;30.88;;;19.13;;
34144;SDS011;20422;53.014;8.886;2022-11-13T10:40:50;30.50;;;18.65;;
34144;SDS011;20422;53.014;8.886;2022-11-13T10:43:23;27.05;;;18.45;;
34144;SDS011;20422;53.014;8.886;2022-11-13T10:46:00;27.33;;;18.60;;
34144;SDS011;20422;53.014;8.886;2022-11-13T10:48:31;31.42;;;17.35;;
34144;SDS011;20422;53.014;8.886;2022-11-13T10:51:05;24.58;;;16.42;;
34144;SDS011;20422;53.014;8.886;2022-11-13T10:53:45;29.10;;;17.92;;
34144;SDS011;20422;53.014;8.886;2022-11-13T10:56:30;25.83;;;17.65;;
34144;SDS011;20422;53.014;8.886;2022-11-13T10:59:16;24.73;;;16.15;;
34144;SDS011;20422;53.014;8.886;2022-11-13T11:01:44;28.67;;;17.85;;
34144;SDS011;20422;53.014;8.886;2022-11-13T11:04:24;22.27;;;16.77;;
34144;SDS011;20422;53.014;8.886;2022-11-13T11:07:01;22.60;;;15.55;;
34144;SDS011;20422;53.014;8.886;2022-11-13T11:09:37;23.48;;;15.40;;
34144;SDS011;20422;53.014;8.886;2022-11-13T11:14:55;23.75;;;15.73;;
34144;SDS011;20422;53.014;8.886;2022-11-13T11:17:46;22.10;;;15.50;;
34144;SDS011;20422;53.014;8.886;2022-11-13T11:20:31;24.58;;;14.88;;
34144;SDS011;20422;53.014;8.886;2022-11-13T11:28:38;28.60;;;14.50;;
34144;SDS011;20422;53.014;8.886;2022-11-13T11:31:19;22.08;;;14.70;;
34144;SDS011;20422;53.014;8.886;2022-11-13T11:33:55;21.75;;;12.93;;
34144;SDS011;20422;53.014;8.886;2022-11-13T11:36:31;23.75;;;13.07;;
34144;SDS011;20422;53.014;8.886;2022-11-13T11:39:13;22.20;;;13.47;;
34144;SDS011;20422;53.014;8.886;2022-11-13T11:41:59;22.48;;;13.02;;
34144;SDS011;20422;53.014;8.886;2022-11-13T11:44:40;19.88;;;13.43;;
34144;SDS011;20422;53.014;8.886;2022-11-13T11:47:10;19.42;;;12.32;;
34144;SDS011;20422;53.014;8.886;2022-11-13T11:49:40;21.42;;;12.35;;
34144;SDS011;20422;53.014;8.886;2022-11-13T11:52:14;17.42;;;12.60;;
34144;SDS011;20422;53.014;8.886;2022-11-13T11:58:16;15.80;;;10.77;;
34144;SDS011;20422;53.014;8.886;2022-11-13T12:00:53;17.67;;;11.90;;
34144;SDS011;20422;53.014;8.886;2022-11-13T12:09:16;16.05;;;10.63;;
34144;SDS011;20422;53.014;8.886;2022-11-13T12:23:55;12.52;;;8.82;;
34144;SDS011;20422;53.014;8.886;2022-11-13T12:33:13;17.50;;;10.05;;
34144;SDS011;20422;53.014;8.886;2022-11-13T12:35:48;16.98;;;9.63;;
34144;SDS011;20422;53.014;8.886;2022-11-13T12:44:25;14.75;;;9.43;;
34144;SDS011;20422;53.014;8.886;2022-11-13T12:46:54;14.77;;;9.32;;
34144;SDS011;20422;53.014;8.886;2022-11-13T12:49:32;14.27;;;8.43;;
34144;SDS011;20422;53.014;8.886;2022-11-13T12:52:01;14.82;;;8.60;;
34144;SDS011;20422;53.014;8.886;2022-11-13T12:54:35;14.55;;;8.45;;
34144;SDS011;20422;53.014;8.886;2022-11-13T12:57:26;12.38;;;8.15;;
34144;SDS011;20422;53.014;8.886;2022-11-13T12:59:55;11.98;;;6.80;;
34144;SDS011;20422;53.014;8.886;2022-11-13T13:05:55;11.98;;;7.68;;
34144;SDS011;20422;53.014;8.886;2022-11-13T13:11:42;11.48;;;8.13;;
34144;SDS011;20422;53.014;8.886;2022-11-13T13:14:43;12.18;;;8.30;;
34144;SDS011;20422;53.014;8.886;2022-11-13T13:17:20;13.23;;;8.98;;
34144;SDS011;20422;53.014;8.886;2022-11-13T13:20:04;13.88;;;8.07;;
34144;SDS011;20422;53.014;8.886;2022-11-13T13:22:40;14.18;;;8.68;;
34144;SDS011;20422;53.014;8.886;2022-11-13T13:25:06;20.83;;;10.95;;
34144;SDS011;20422;53.014;8.886;2022-11-13T13:28:22;13.35;;;9.10;;
34144;SDS011;20422;53.014;8.886;2022-11-13T13:48:38;19.27;;;12.48;;
34144;SDS011;20422;53.014;8.886;2022-11-13T13:51:16;17.65;;;11.93;;
34144;SDS011;20422;53.014;8.886;2022-11-13T13:53:50;21.08;;;13.50;;
34144;SDS011;20422;53.014;8.886;2022-11-13T13:56:17;18.67;;;12.18;;
34144;SDS011;20422;53.014;8.886;2022-11-13T13:58:46;20.00;;;12.35;;
34144;SDS011;20422;53.014;8.886;2022-11-13T14:01:24;19.20;;;12.00;;
34144;SDS011;20422;53.014;8.886;2022-11-13T14:06:28;16.45;;;11.30;;
34144;SDS011;20422;53.014;8.886;2022-11-13T14:08:53;19.13;;;11.63;;
34144;SDS011;20422;53.014;8.886;2022-11-13T14:11:26;23.15;;;12.85;;
34144;SDS011;20422;53.014;8.886;2022-11-13T14:14:05;21.30;;;12.80;;
34144;SDS011;20422;53.014;8.886;2022-11-13T14:16:45;20.23;;;13.15;;
34144;SDS011;20422;53.014;8.886;2022-11-13T14:19:18;20.67;;;13.55;;
34144;SDS011;20422;53.014;8.886;2022-11-13T14:21:44;19.02;;;11.77;;
34144;SDS011;20422;53.014;8.886;2022-11-13T14:24:23;21.35;;;12.77;;
34144;SDS011;20422;53.014;8.886;2022-11-13T14:26:59;20.10;;;12.20;;
34144;SDS011;20422;53.014;8.886;2022-11-13T14:29:43;19.08;;;13.05;;
34144;SDS011;20422;53.014;8.886;2022-11-13T14:32:14;19.70;;;12.70;;
34144;SDS011;20422;53.014;8.886;2022-11-13T14:34:44;19.73;;;12.90;;
34144;SDS011;20422;53.014;8.886;2022-11-13T14:39:52;24.85;;;14.02;;
34144;SDS011;20422;53.014;8.886;2022-11-13T14:42:27;22.92;;;14.20;;
34144;SDS011;20422;53.014;8.886;2022-11-13T14:45:19;19.38;;;12.95;;
34144;SDS011;20422;53.014;8.886;2022-11-13T14:48:01;19.40;;;13.60;;
34144;SDS011;20422;53.014;8.886;2022-11-13T14:53:33;19.75;;;12.90;;
34144;SDS011;20422;53.014;8.886;2022-11-13T14:56:03;28.92;;;14.45;;
34144;SDS011;20422;53.014;8.886;2022-11-13T14:58:32;24.00;;;14.95;;
34144;SDS011;20422;53.014;8.886;2022-11-13T15:01:19;23.17;;;15.13;;
34144;SDS011;20422;53.014;8.886;2022-11-13T15:03:47;23.15;;;15.07;;
34144;SDS011;20422;53.014;8.886;2022-11-13T15:06:17;23.17;;;16.43;;
34144;SDS011;20422;53.014;8.886;2022-11-13T15:08:48;27.35;;;17.33;;
34144;SDS011;20422;53.014;8.886;2022-11-13T15:11:17;29.35;;;17.73;;
34144;SDS011;20422;53.014;8.886;2022-11-13T15:13:43;30.10;;;18.40;;
34144;SDS011;20422;53.014;8.886;2022-11-13T15:16:17;32.80;;;19.58;;
34144;SDS011;20422;53.014;8.886;2022-11-13T15:18:51;31.60;;;18.35;;
34144;SDS011;20422;53.014;8.886;2022-11-13T15:21:20;35.40;;;19.88;;
34144;SDS011;20422;53.014;8.886;2022-11-13T15:23:47;32.90;;;18.63;;
34144;SDS011;20422;53.014;8.886;2022-11-13T15:26:12;34.25;;;20.45;;
34144;SDS011;20422;53.014;8.886;2022-11-13T15:28:38;34.00;;;19.60;;
34144;SDS011;20422;53.014;8.886;2022-11-13T15:31:39;33.65;;;18.85;;
34144;SDS011;20422;53.014;8.886;2022-11-13T15:34:09;35.58;;;19.15;;
34144;SDS011;20422;53.014;8.886;2022-11-13T15:36:40;40.65;;;22.23;;
34144;SDS011;20422;53.014;8.886;2022-11-13T15:39:10;40.03;;;21.35;;
34144;SDS011;20422;53.014;8.886;2022-11-13T15:41:37;39.10;;;21.20;;
34144;SDS011;20422;53.014;8.886;2022-11-13T15:44:05;39.70;;;20.02;;
34144;SDS011;20422;53.014;8.886;2022-11-13T15:46:37;40.90;;;21.00;;
34144;SDS011;20422;53.014;8.886;2022-11-13T15:49:03;46.55;;;23.67;;
34144;SDS011;20422;53.014;8.886;2022-11-13T15:51:42;43.58;;;22.25;;
34144;SDS011;20422;53.014;8.886;2022-11-13T15:57:03;46.35;;;23.02;;
34144;SDS011;20422;53.014;8.886;2022-11-13T15:59:28;46.00;;;22.23;;
34144;SDS011;20422;53.014;8.886;2022-11-13T16:01:54;43.08;;;22.65;;
34144;SDS011;20422;53.014;8.886;2022-11-13T16:04:21;48.85;;;22.35;;
34144;SDS011;20422;53.014;8.886;2022-11-13T16:06:48;47.67;;;22.65;;
34144;SDS011;20422;53.014;8.886;2022-11-13T16:09:13;41.53;;;21.75;;
34144;SDS011;20422;53.014;8.886;2022-11-13T16:11:40;50.10;;;22.80;;
34144;SDS011;20422;53.014;8.886;2022-11-13T16:14:06;45.22;;;21.45;;
34144;SDS011;20422;53.014;8.886;2022-11-13T16:16:34;47.30;;;19.63;;
34144;SDS011;20422;53.014;8.886;2022-11-13T16:19:02;49.70;;;22.27;;
34144;SDS011;20422;53.014;8.886;2022-11-13T16:21:37;55.10;;;24.83;;
34144;SDS011;20422;53.014;8.886;2022-11-13T16:24:03;54.60;;;25.10;;
34144;SDS011;20422;53.014;8.886;2022-11-13T16:26:30;58.13;;;25.92;;
34144;SDS011;20422;53.014;8.886;2022-11-13T16:28:57;58.25;;;27.27;;
34144;SDS011;20422;53.014;8.886;2022-11-13T16:31:24;65.97;;;29.95;;
34144;SDS011;20422;53.014;8.886;2022-11-13T16:33:50;76.90;;;37.40;;